createdAt,value
2023-03-15T00:02:42.685Z,5.40
2023-03-15T00:05:47.471Z,5.03
2023-03-15T00:08:52.086Z,4.60
2023-03-15T00:11:55.590Z,4.63
2023-03-15T00:15:00.341Z,5.47
2023-03-15T00:18:04.309Z,4.67
2023-03-15T00:21:07.304Z,5.07
2023-03-15T00:24:11.596Z,4.67
2023-03-15T00:27:14.624Z,5.73
2023-03-15T00:30:19.391Z,5.27
2023-03-15T00:33:22.366Z,4.67
2023-03-15T00:36:26.134Z,4.60
2023-03-15T00:39:30.144Z,5.30
2023-03-15T00:42:33.678Z,4.67
2023-03-15T00:45:39.733Z,4.83
2023-03-15T00:48:42.749Z,4.73
2023-03-15T00:51:45.768Z,4.87
2023-03-15T00:54:53.051Z,4.30
2023-03-15T00:57:57.822Z,3.83
2023-03-15T01:01:07.039Z,5.00
2023-03-15T01:04:10.305Z,3.87
2023-03-15T01:07:13.286Z,5.33
2023-03-15T01:10:17.119Z,4.90
2023-03-15T01:13:20.225Z,4.23
2023-03-15T01:16:25.237Z,4.63
2023-03-15T01:19:28.250Z,4.60
2023-03-15T01:22:31.235Z,4.90
2023-03-15T01:25:35.385Z,3.80
2023-03-15T01:28:38.596Z,4.80
2023-03-15T01:31:43.051Z,4.27
2023-03-15T01:34:46.163Z,4.77
2023-03-15T01:37:51.001Z,5.00
2023-03-15T01:40:54.872Z,4.53
2023-03-15T01:43:57.960Z,5.20
2023-03-15T01:47:02.517Z,4.20
2023-03-15T01:50:10.336Z,4.60
2023-03-15T01:53:13.830Z,4.60
2023-03-15T01:56:17.712Z,4.20
2023-03-15T01:59:28.570Z,4.83
2023-03-15T02:02:33.163Z,4.37
2023-03-15T02:05:46.238Z,4.23
2023-03-15T02:08:58.459Z,4.37
2023-03-15T02:12:06.782Z,4.40
2023-03-15T02:15:11.564Z,4.37
2023-03-15T02:18:16.761Z,4.13
2023-03-15T02:21:37.002Z,4.17
2023-03-15T02:24:51.336Z,4.23
2023-03-15T02:27:57.083Z,4.30
2023-03-15T02:31:00.720Z,4.30
2023-03-15T02:34:07.716Z,4.37
2023-03-15T02:37:10.955Z,4.43
2023-03-15T02:40:21.162Z,4.60
2023-03-15T02:43:29.384Z,4.47
2023-03-15T02:46:32.424Z,4.07
2023-03-15T02:49:42.162Z,4.30
2023-03-15T02:52:45.475Z,3.97
2023-03-15T02:55:48.420Z,4.77
2023-03-15T02:58:53.236Z,4.77
2023-03-15T03:01:56.214Z,4.77
2023-03-15T03:04:59.445Z,5.00
2023-03-15T03:08:02.736Z,4.53
2023-03-15T03:11:06.934Z,4.63
2023-03-15T03:14:14.059Z,5.13
2023-03-15T03:17:17.754Z,5.03
2023-03-15T03:20:21.482Z,5.00
2023-03-15T03:23:25.780Z,4.90
2023-03-15T03:26:32.670Z,5.03
2023-03-15T03:29:37.625Z,5.07
2023-03-15T03:32:41.340Z,4.80
2023-03-15T03:35:44.453Z,4.40
2023-03-15T03:38:48.255Z,4.50
2023-03-15T03:41:51.920Z,4.70
2023-03-15T03:44:56.221Z,4.90
2023-03-15T03:48:02.217Z,4.80
2023-03-15T03:51:07.181Z,4.93
2023-03-15T03:54:10.257Z,4.73
2023-03-15T03:57:13.703Z,4.50
2023-03-15T04:00:20.219Z,4.30
2023-03-15T04:03:27.076Z,4.57
2023-03-15T04:06:35.531Z,4.57
2023-03-15T04:09:39.218Z,4.37
2023-03-15T04:12:43.770Z,4.60
2023-03-15T04:15:49.480Z,4.80
2023-03-15T04:18:56.569Z,5.20
2023-03-15T04:22:06.524Z,5.20
2023-03-15T04:25:26.651Z,4.40
2023-03-15T04:28:42.983Z,4.43
2023-03-15T04:32:14.692Z,4.30
2023-03-15T04:35:27.646Z,4.83
2023-03-15T04:38:37.702Z,3.90
2023-03-15T04:41:55.442Z,4.67
2023-03-15T04:45:08.853Z,5.07
2023-03-15T04:48:32.047Z,5.00
2023-03-15T04:52:00.740Z,4.57
2023-03-15T04:55:24.282Z,5.20
2023-03-15T04:58:45.982Z,5.73
2023-03-15T05:02:04.192Z,5.50
2023-03-15T05:05:27.462Z,5.43
2023-03-15T05:08:45.244Z,4.60
2023-03-15T05:12:00.349Z,5.30
2023-03-15T05:15:25.223Z,4.70
2023-03-15T05:18:35.581Z,4.33
2023-03-15T05:21:59.099Z,5.13
2023-03-15T05:25:20.692Z,5.23
2023-03-15T05:28:45.331Z,5.37
2023-03-15T05:32:07.184Z,5.03
2023-03-15T05:35:49.733Z,4.90
2023-03-15T05:39:30.043Z,5.20
2023-03-15T05:42:45.012Z,5.60
2023-03-15T05:45:57.293Z,7.53
2023-03-15T05:49:11.224Z,5.40
2023-03-15T05:52:43.215Z,4.97
2023-03-15T05:56:09.160Z,6.40
2023-03-15T05:59:37.522Z,4.93
2023-03-15T06:03:04.744Z,4.90
2023-03-15T06:06:26.237Z,5.10
2023-03-15T06:09:29.391Z,5.47
2023-03-15T06:12:33.907Z,5.93
2023-03-15T06:15:37.245Z,5.50
2023-03-15T06:18:41.413Z,5.40
2023-03-15T06:21:45.695Z,5.77
2023-03-15T06:24:57.628Z,5.03
2023-03-15T06:28:02.233Z,5.13
2023-03-15T06:31:08.867Z,5.27
2023-03-15T06:34:18.663Z,5.27
2023-03-15T06:37:34.649Z,6.87
2023-03-15T06:40:39.637Z,5.30
2023-03-15T06:43:43.960Z,5.67
2023-03-15T06:46:48.669Z,5.43
2023-03-15T06:49:52.353Z,6.00
2023-03-15T06:52:56.842Z,5.43
2023-03-15T06:56:00.008Z,5.13
2023-03-15T06:59:04.749Z,5.90
2023-03-15T07:02:08.202Z,5.63
2023-03-15T07:05:12.074Z,5.77
2023-03-15T07:08:15.068Z,5.23
2023-03-15T07:11:18.146Z,6.20
2023-03-15T07:14:22.758Z,6.00
2023-03-15T07:17:25.842Z,5.57
2023-03-15T07:20:28.821Z,5.83
2023-03-15T07:23:33.605Z,5.10
2023-03-15T07:26:36.573Z,5.63
2023-03-15T07:29:43.540Z,5.50
2023-03-15T07:32:46.826Z,5.47
2023-03-15T07:35:50.466Z,5.20
2023-03-15T07:38:53.637Z,5.83
2023-03-15T07:41:56.618Z,5.23
2023-03-15T07:45:11.273Z,6.30
2023-03-15T07:48:14.624Z,6.47
2023-03-15T07:51:20.762Z,5.77
2023-03-15T07:54:23.732Z,5.60
2023-03-15T07:57:28.886Z,5.73
2023-03-15T08:00:33.823Z,6.00
2023-03-15T08:03:37.589Z,5.47
2023-03-15T08:06:40.936Z,5.90
2023-03-15T08:09:48.350Z,6.87
2023-03-15T08:12:51.718Z,5.90
2023-03-15T08:15:56.033Z,5.97
2023-03-15T08:18:59.553Z,6.10
2023-03-15T08:22:02.558Z,6.23
2023-03-15T08:25:07.701Z,6.97
2023-03-15T08:28:11.207Z,7.10
2023-03-15T08:31:18.887Z,6.30
2023-03-15T08:34:22.538Z,6.40
2023-03-15T08:37:25.797Z,6.80
2023-03-15T08:40:29.637Z,7.20
2023-03-15T08:43:32.855Z,6.90
2023-03-15T08:46:37.191Z,6.60
2023-03-15T08:49:40.160Z,6.87
2023-03-15T08:52:43.433Z,6.50
2023-03-15T08:55:46.402Z,6.30
2023-03-15T08:58:49.404Z,6.30
2023-03-15T09:01:53.860Z,5.90
2023-03-15T09:04:56.995Z,6.73
2023-03-15T09:08:00.668Z,6.03
2023-03-15T09:11:03.819Z,7.80
2023-03-15T09:14:07.111Z,8.57
2023-03-15T09:17:12.152Z,7.00
2023-03-15T09:20:16.845Z,8.63
2023-03-15T09:23:20.080Z,6.73
2023-03-15T09:26:23.151Z,7.13
2023-03-15T09:29:26.335Z,6.40
2023-03-15T09:32:36.096Z,6.93
2023-03-15T09:35:39.249Z,6.53
2023-03-15T09:38:44.082Z,6.27
2023-03-15T09:41:49.375Z,6.17
2023-03-15T09:45:04.506Z,6.53
2023-03-15T09:48:13.979Z,6.80
2023-03-15T09:51:28.272Z,5.70
2023-03-15T09:54:40.975Z,6.53
2023-03-15T09:57:50.002Z,6.10
2023-03-15T10:00:56.321Z,5.80
2023-03-15T10:04:09.338Z,5.80
2023-03-15T10:07:16.516Z,5.90
2023-03-15T10:10:23.805Z,5.63
2023-03-15T10:13:43.491Z,5.57
2023-03-15T10:16:50.057Z,6.13
2023-03-15T10:20:01.428Z,5.60
2023-03-15T10:23:11.521Z,6.43
2023-03-15T10:26:20.451Z,5.53
2023-03-15T10:29:27.991Z,5.63
2023-03-15T10:32:39.278Z,6.27
2023-03-15T10:35:43.845Z,5.70
2023-03-15T10:38:50.402Z,5.57
2023-03-15T10:41:53.407Z,5.03
2023-03-15T10:44:56.896Z,5.57
2023-03-15T10:48:01.065Z,5.20
2023-03-15T10:51:14.617Z,4.40
2023-03-15T10:54:20.941Z,5.63
2023-03-15T10:57:27.914Z,4.27
2023-03-15T11:00:33.580Z,3.93
2023-03-15T11:03:37.592Z,4.67
2023-03-15T11:06:46.655Z,4.70
2023-03-15T11:09:55.451Z,5.10
2023-03-15T11:13:20.506Z,5.37
2023-03-15T11:16:23.635Z,4.73
2023-03-15T11:19:29.994Z,5.27
2023-03-15T11:22:34.343Z,4.60
2023-03-15T11:25:37.371Z,4.93
2023-03-15T11:28:49.032Z,5.10
2023-03-15T11:31:53.532Z,4.07
2023-03-15T11:35:02.346Z,4.60
2023-03-15T11:38:17.228Z,4.07
2023-03-15T11:41:31.095Z,4.27
2023-03-15T11:44:40.656Z,4.20
2023-03-15T11:47:50.411Z,3.70
2023-03-15T11:50:54.722Z,4.47
2023-03-15T12:31:50.463Z,3.17
2023-03-15T12:35:53.375Z,3.57
2023-03-15T12:40:05.187Z,3.50
2023-03-15T12:49:30.390Z,3.87
2023-03-15T12:58:09.054Z,4.07
2023-03-15T13:01:48.199Z,4.23
2023-03-15T13:10:56.145Z,3.83
2023-03-15T13:14:16.087Z,3.37
2023-03-15T13:17:35.028Z,4.03
2023-03-15T13:20:42.954Z,3.07
2023-03-15T13:24:00.701Z,3.93
2023-03-15T13:27:12.424Z,3.60
2023-03-15T13:30:38.846Z,3.30
2023-03-15T13:33:41.992Z,2.80
2023-03-15T13:36:48.141Z,3.17
2023-03-15T13:40:01.442Z,2.80
2023-03-15T13:43:04.463Z,3.43
2023-03-15T13:46:09.496Z,3.43
2023-03-15T13:49:13.619Z,3.33
2023-03-15T13:52:16.738Z,3.27
2023-03-15T13:55:36.054Z,2.93
2023-03-15T13:58:40.228Z,3.60
2023-03-15T14:01:44.718Z,3.30
2023-03-15T14:04:55.634Z,4.03
2023-03-15T14:08:04.631Z,4.50
2023-03-15T14:11:13.544Z,4.47
2023-03-15T14:14:26.157Z,4.00
2023-03-15T14:17:47.509Z,3.83
2023-03-15T14:21:03.840Z,4.23
2023-03-15T14:24:08.611Z,4.23
2023-03-15T14:27:19.959Z,3.70
2023-03-15T14:30:28.866Z,4.40
2023-03-15T14:33:45.234Z,3.27
2023-03-15T14:36:54.206Z,3.17
2023-03-15T14:40:20.952Z,3.07
2023-03-15T14:43:29.335Z,2.90
2023-03-15T14:46:35.559Z,3.40
2023-03-15T14:49:42.421Z,2.87
2023-03-15T14:52:49.176Z,2.97
2023-03-15T14:55:52.844Z,3.20
2023-03-15T14:58:58.836Z,3.60
2023-03-15T15:02:02.884Z,3.07
2023-03-15T15:05:21.776Z,2.80
2023-03-15T15:08:25.589Z,2.60
2023-03-15T15:11:30.265Z,3.17
2023-03-15T15:14:33.250Z,2.90
2023-03-15T15:17:37.321Z,2.83
2023-03-15T15:20:43.282Z,2.97
2023-03-15T15:23:58.573Z,3.20
2023-03-15T15:27:05.748Z,2.97
2023-03-15T15:30:16.361Z,3.37
2023-03-15T15:33:20.314Z,3.20
2023-03-15T15:36:29.891Z,3.03
2023-03-15T15:39:34.065Z,3.33
2023-03-15T15:42:37.231Z,3.40
2023-03-15T15:45:41.528Z,3.43
2023-03-15T15:48:44.630Z,3.20
2023-03-15T15:51:50.206Z,3.87
2023-03-15T15:54:55.419Z,4.17
2023-03-15T15:57:58.788Z,3.40
2023-03-15T16:01:01.828Z,3.27
2023-03-15T16:04:05.024Z,4.20
2023-03-15T16:07:11.600Z,4.17
2023-03-15T16:10:22.084Z,3.07
2023-03-15T16:13:25.071Z,3.40
2023-03-15T16:16:28.272Z,3.60
2023-03-15T16:19:31.250Z,4.10
2023-03-15T16:22:40.297Z,3.57
2023-03-15T16:25:53.846Z,4.10
2023-03-15T16:28:56.845Z,4.50
2023-03-15T16:32:16.454Z,3.47
2023-03-15T16:35:23.321Z,3.77
2023-03-15T16:38:32.492Z,4.33
2023-03-15T16:41:39.909Z,3.80
2023-03-15T16:44:43.243Z,3.37
2023-03-15T16:47:46.455Z,3.00
2023-03-15T16:50:50.110Z,3.77
2023-03-15T16:54:08.529Z,4.00
2023-03-15T16:57:22.457Z,3.23
2023-03-15T17:00:26.310Z,4.17
2023-03-15T17:03:29.994Z,4.47
2023-03-15T17:06:33.818Z,4.23
2023-03-15T17:09:38.322Z,4.30
2023-03-15T17:12:42.358Z,4.27
2023-03-15T17:15:45.420Z,4.07
2023-03-15T17:18:49.342Z,3.73
2023-03-15T17:21:53.053Z,4.53
2023-03-15T17:24:57.401Z,4.87
2023-03-15T17:28:01.149Z,4.20
2023-03-15T17:31:23.955Z,5.10
2023-03-15T17:34:27.094Z,4.60
2023-03-15T17:37:33.778Z,4.90
2023-03-15T17:40:38.940Z,5.23
2023-03-15T17:43:43.818Z,4.90
2023-03-15T17:46:46.894Z,5.03
2023-03-15T17:49:50.224Z,4.87
2023-03-15T17:52:59.341Z,5.23
2023-03-15T17:56:03.723Z,4.80
2023-03-15T17:59:07.032Z,4.57
2023-03-15T18:02:16.432Z,5.30
2023-03-15T18:05:22.531Z,4.50
2023-03-15T18:08:25.691Z,5.37
2023-03-15T18:11:35.545Z,5.40
2023-03-15T18:14:38.989Z,5.23
2023-03-15T18:17:42.428Z,5.00
2023-03-15T18:20:46.098Z,6.03
2023-03-15T18:23:49.741Z,5.83
2023-03-15T18:26:54.513Z,5.77
2023-03-15T18:30:00.252Z,5.50
2023-03-15T18:33:05.713Z,4.83
2023-03-15T18:36:09.803Z,5.20
2023-03-15T18:39:13.206Z,4.97
2023-03-15T18:42:17.580Z,4.47
2023-03-15T18:45:23.543Z,4.47
2023-03-15T18:48:39.720Z,4.47
2023-03-15T18:51:43.311Z,4.77
2023-03-15T18:54:46.252Z,4.50
2023-03-15T18:57:52.031Z,5.03
2023-03-15T19:00:54.994Z,5.43
2023-03-15T19:03:58.108Z,4.90
2023-03-15T19:07:01.091Z,4.70
2023-03-15T19:10:05.018Z,4.90
2023-03-15T19:13:09.444Z,5.63
2023-03-15T19:16:12.426Z,5.37
2023-03-15T19:19:15.820Z,5.23
2023-03-15T19:22:18.879Z,5.23
2023-03-15T19:25:24.250Z,5.27
2023-03-15T19:28:31.576Z,9.43
2023-03-15T19:31:34.751Z,8.23
2023-03-15T19:34:40.670Z,7.10
2023-03-15T19:37:49.608Z,8.43
2023-03-15T19:40:55.218Z,6.70
2023-03-15T19:44:05.172Z,6.67
2023-03-15T19:47:09.317Z,7.20
2023-03-15T19:50:14.426Z,7.13
2023-03-15T19:58:49.681Z,6.17
2023-03-15T20:01:54.442Z,5.40
2023-03-15T20:10:26.607Z,5.97
2023-03-15T20:13:29.796Z,5.23
2023-03-15T20:16:34.439Z,6.13
2023-03-15T20:19:42.194Z,6.13
2023-03-15T20:22:46.583Z,5.07
2023-03-15T20:25:50.202Z,5.27
2023-03-15T20:28:53.162Z,5.20
2023-03-15T20:31:56.091Z,7.00
2023-03-15T20:35:02.132Z,7.47
2023-03-15T20:38:08.448Z,6.57
2023-03-15T20:41:13.724Z,6.63
2023-03-15T20:44:16.724Z,5.70
2023-03-15T20:47:19.802Z,7.03
2023-03-15T20:50:24.680Z,6.57
2023-03-15T20:53:29.163Z,7.23
2023-03-15T20:56:34.215Z,6.97
2023-03-15T20:59:37.228Z,6.73
2023-03-15T21:02:41.367Z,6.80
2023-03-15T21:05:46.781Z,7.40
2023-03-15T21:08:50.571Z,11.53
2023-03-15T21:11:53.485Z,7.40
2023-03-15T21:14:56.451Z,6.73
2023-03-15T21:17:59.391Z,7.17
2023-03-15T21:21:05.938Z,7.60
2023-03-15T21:24:09.055Z,5.87
2023-03-15T21:27:12.353Z,6.33
2023-03-15T21:30:16.358Z,5.53
2023-03-15T21:33:19.657Z,6.43
2023-03-15T21:36:23.982Z,5.90
2023-03-15T21:39:27.024Z,5.30
2023-03-15T21:42:29.956Z,5.80
2023-03-15T21:45:33.054Z,5.70
2023-03-15T21:48:37.432Z,6.03
2023-03-15T21:51:45.766Z,5.43
2023-03-15T21:54:48.787Z,5.87
2023-03-15T21:57:51.977Z,5.43
2023-03-15T22:00:59.243Z,5.63
2023-03-15T22:04:02.298Z,5.60
2023-03-15T22:07:06.638Z,5.50
2023-03-15T22:10:11.969Z,5.53
2023-03-15T22:13:15.088Z,5.73
2023-03-15T22:16:18.383Z,5.17
2023-03-15T22:19:21.511Z,5.43
2023-03-15T22:22:25.759Z,5.80
2023-03-15T22:25:28.715Z,5.57
2023-03-15T22:28:33.063Z,6.33
2023-03-15T22:31:38.412Z,5.33
2023-03-15T22:34:41.499Z,5.47
2023-03-15T22:37:46.024Z,5.87
2023-03-15T22:40:49.420Z,6.00
2023-03-15T22:43:53.489Z,5.90
2023-03-15T22:46:56.984Z,7.27
2023-03-15T22:49:59.941Z,6.07
2023-03-15T22:53:04.292Z,6.03
2023-03-15T22:56:07.598Z,6.30
2023-03-15T22:59:10.564Z,6.97
2023-03-15T23:02:13.575Z,6.80
2023-03-15T23:05:17.889Z,6.20
2023-03-15T23:08:22.985Z,6.20
2023-03-15T23:11:26.120Z,7.07
2023-03-15T23:14:29.601Z,7.33
2023-03-15T23:17:32.759Z,5.87
2023-03-15T23:20:35.965Z,6.40
2023-03-15T23:23:40.645Z,6.63
2023-03-15T23:26:43.964Z,6.87
2023-03-15T23:29:54.413Z,6.70
2023-03-15T23:32:59.693Z,6.80
2023-03-15T23:36:03.263Z,6.37
2023-03-15T23:39:08.833Z,6.80
2023-03-15T23:42:12.573Z,5.90
2023-03-15T23:45:17.018Z,6.73
2023-03-15T23:48:20.371Z,6.43
2023-03-15T23:51:23.751Z,6.00
2023-03-15T23:54:28.422Z,6.53
2023-03-15T23:57:32.684Z,6.40
